Terminal Aerodrome Forecast
Issued by NWS Springfield, MO

Home | Current Version | Previous Version | Text Only | Print | Product List | Glossary On
Versions: 1 2 3 4 5 6 7 8 9 10 11 12 13 14 15 16 17 18 19 20 21
678
FTUS43 KSGF 152324 CCA
TAFSGF
TAF COR
KSGF 152324Z 1600/1624 22013G23KT P6SM OVC250
     FM160200 24015G22KT P6SM VCSH OVC090
     FM160500 32015G22KT P6SM VCSH OVC050
     FM160800 35021G29KT P6SM VCSH OVC025
     FM161000 35021G28KT P6SM OVC050
     FM162300 04010KT P6SM SCT250=

USA.gov is the U.S. government's official web portal to all federal, state and local government web resources and services.